Terminal Aerodrome Forecast
Issued by NWS Boston, MA

Home | Current Version | Previous Version | Text Only | Print | Product List | Glossary On
Versions: 1 2 3 4 5 6 7 8 9 10 11 12 13 14 15 16 17 18 19
000
FTUS41 KBOX 250324 AAA
TAFORH
TAF AMD
KORH 250324Z 2503/2524 30004KT P6SM FEW003 OVC015
     FM250700 29005KT P6SM SCT015 BKN070
     FM250900 27005KT 5SM BR BKN100
     FM251100 27006KT P6SM SCT130=

USA.gov is the U.S. government's official web portal to all federal, state and local government web resources and services.